sensor_id;sensor_type;location;lat;lon;timestamp;temperature;humidity
8862;DHT22;4799;50.996;4.754;2022-09-23T00:00:48;9.40;99.90
8862;DHT22;4799;50.996;4.754;2022-09-23T00:03:22;9.40;99.90
8862;DHT22;4799;50.996;4.754;2022-09-23T00:06:00;9.40;99.90
8862;DHT22;4799;50.996;4.754;2022-09-23T00:08:26;9.30;99.90
8862;DHT22;4799;50.996;4.754;2022-09-23T00:10:52;9.20;99.90
8862;DHT22;4799;50.996;4.754;2022-09-23T00:13:17;9.20;99.90
8862;DHT22;4799;50.996;4.754;2022-09-23T00:15:43;9.20;99.90
8862;DHT22;4799;50.996;4.754;2022-09-23T00:18:09;9.10;99.90
8862;DHT22;4799;50.996;4.754;2022-09-23T00:20:35;9.10;99.90
8862;DHT22;4799;50.996;4.754;2022-09-23T00:23:01;9.00;99.90
8862;DHT22;4799;50.996;4.754;2022-09-23T00:25:27;9.00;99.90
8862;DHT22;4799;50.996;4.754;2022-09-23T00:27:54;9.00;99.90
8862;DHT22;4799;50.996;4.754;2022-09-23T00:30:20;8.90;99.90
8862;DHT22;4799;50.996;4.754;2022-09-23T00:32:48;8.90;99.90
8862;DHT22;4799;50.996;4.754;2022-09-23T00:35:14;8.80;99.90
8862;DHT22;4799;50.996;4.754;2022-09-23T00:37:39;8.90;99.90
8862;DHT22;4799;50.996;4.754;2022-09-23T00:40:06;8.80;99.90
8862;DHT22;4799;50.996;4.754;2022-09-23T00:42:33;8.80;99.90
8862;DHT22;4799;50.996;4.754;2022-09-23T00:44:59;8.80;99.90
8862;DHT22;4799;50.996;4.754;2022-09-23T00:49:59;8.70;99.90
8862;DHT22;4799;50.996;4.754;2022-09-23T00:52:27;8.70;99.90
8862;DHT22;4799;50.996;4.754;2022-09-23T00:54:54;8.70;99.90
8862;DHT22;4799;50.996;4.754;2022-09-23T00:57:21;8.60;99.90
8862;DHT22;4799;50.996;4.754;2022-09-23T00:59:49;8.60;99.90
8862;DHT22;4799;50.996;4.754;2022-09-23T01:02:16;8.60;99.90
8862;DHT22;4799;50.996;4.754;2022-09-23T01:04:43;8.60;99.90
8862;DHT22;4799;50.996;4.754;2022-09-23T01:07:08;8.60;99.90
8862;DHT22;4799;50.996;4.754;2022-09-23T01:09:35;8.50;99.90
8862;DHT22;4799;50.996;4.754;2022-09-23T01:15:02;8.50;99.90
8862;DHT22;4799;50.996;4.754;2022-09-23T01:17:49;8.50;99.90
8862;DHT22;4799;50.996;4.754;2022-09-23T01:34:02;8.40;99.90
8862;DHT22;4799;50.996;4.754;2022-09-23T01:37:10;8.40;99.90
8862;DHT22;4799;50.996;4.754;2022-09-23T01:39:42;8.40;99.90
8862;DHT22;4799;50.996;4.754;2022-09-23T01:47:32;8.30;99.90
8862;DHT22;4799;50.996;4.754;2022-09-23T01:50:03;8.30;99.90
8862;DHT22;4799;50.996;4.754;2022-09-23T01:52:52;8.30;99.90
8862;DHT22;4799;50.996;4.754;2022-09-23T01:55:27;8.30;99.90
8862;DHT22;4799;50.996;4.754;2022-09-23T01:58:01;8.20;99.90
8862;DHT22;4799;50.996;4.754;2022-09-23T02:00:32;8.20;99.90
8862;DHT22;4799;50.996;4.754;2022-09-23T02:03:14;8.20;99.90
8862;DHT22;4799;50.996;4.754;2022-09-23T02:05:48;8.10;99.90
8862;DHT22;4799;50.996;4.754;2022-09-23T02:08:28;8.10;99.90
8862;DHT22;4799;50.996;4.754;2022-09-23T02:11:13;8.10;99.90
8862;DHT22;4799;50.996;4.754;2022-09-23T02:13:51;8.00;99.90
8862;DHT22;4799;50.996;4.754;2022-09-23T02:21:40;7.90;99.90
8862;DHT22;4799;50.996;4.754;2022-09-23T02:24:15;7.90;99.90
8862;DHT22;4799;50.996;4.754;2022-09-23T02:32:22;7.80;99.90
8862;DHT22;4799;50.996;4.754;2022-09-23T02:42:50;7.70;99.90
8862;DHT22;4799;50.996;4.754;2022-09-23T02:45:17;7.70;99.90
8862;DHT22;4799;50.996;4.754;2022-09-23T02:47:47;7.60;99.90
8862;DHT22;4799;50.996;4.754;2022-09-23T02:50:16;7.60;99.90
8862;DHT22;4799;50.996;4.754;2022-09-23T02:52:44;7.60;99.90
8862;DHT22;4799;50.996;4.754;2022-09-23T02:55:11;7.60;99.90
8862;DHT22;4799;50.996;4.754;2022-09-23T02:57:41;7.60;99.90
8862;DHT22;4799;50.996;4.754;2022-09-23T03:00:07;7.60;99.90
8862;DHT22;4799;50.996;4.754;2022-09-23T03:02:50;7.60;99.90
8862;DHT22;4799;50.996;4.754;2022-09-23T03:05:32;7.50;99.90
8862;DHT22;4799;50.996;4.754;2022-09-23T03:11:06;7.60;99.90
8862;DHT22;4799;50.996;4.754;2022-09-23T03:19:13;7.60;99.90
8862;DHT22;4799;50.996;4.754;2022-09-23T03:24:31;7.70;99.90
8862;DHT22;4799;50.996;4.754;2022-09-23T03:27:01;7.70;99.90
8862;DHT22;4799;50.996;4.754;2022-09-23T03:29:27;7.70;99.90
8862;DHT22;4799;50.996;4.754;2022-09-23T03:31:55;7.70;99.90
8862;DHT22;4799;50.996;4.754;2022-09-23T03:34:28;7.70;99.90
8862;DHT22;4799;50.996;4.754;2022-09-23T03:36:59;7.70;99.90
8862;DHT22;4799;50.996;4.754;2022-09-23T03:39:31;7.70;99.90
8862;DHT22;4799;50.996;4.754;2022-09-23T03:42:05;7.60;99.90
8862;DHT22;4799;50.996;4.754;2022-09-23T03:44:35;7.60;99.90
8862;DHT22;4799;50.996;4.754;2022-09-23T03:47:05;7.60;99.90
8862;DHT22;4799;50.996;4.754;2022-09-23T03:49:34;7.60;99.90
8862;DHT22;4799;50.996;4.754;2022-09-23T03:52:01;7.60;99.90
8862;DHT22;4799;50.996;4.754;2022-09-23T03:54:28;7.60;99.90
8862;DHT22;4799;50.996;4.754;2022-09-23T03:56:57;7.60;99.90
8862;DHT22;4799;50.996;4.754;2022-09-23T03:59:24;7.60;99.90
8862;DHT22;4799;50.996;4.754;2022-09-23T04:01:50;7.60;99.90
8862;DHT22;4799;50.996;4.754;2022-09-23T04:04:16;7.60;99.90
8862;DHT22;4799;50.996;4.754;2022-09-23T04:06:41;7.60;99.90
8862;DHT22;4799;50.996;4.754;2022-09-23T04:09:07;7.50;99.90
8862;DHT22;4799;50.996;4.754;2022-09-23T04:11:33;7.50;99.90
8862;DHT22;4799;50.996;4.754;2022-09-23T04:14:00;7.50;99.90
8862;DHT22;4799;50.996;4.754;2022-09-23T04:16:26;7.50;99.90
8862;DHT22;4799;50.996;4.754;2022-09-23T04:18:52;7.50;99.90
8862;DHT22;4799;50.996;4.754;2022-09-23T04:21:17;7.60;99.90
8862;DHT22;4799;50.996;4.754;2022-09-23T04:23:43;7.60;99.90
8862;DHT22;4799;50.996;4.754;2022-09-23T04:26:11;7.60;99.90
8862;DHT22;4799;50.996;4.754;2022-09-23T04:28:36;7.60;99.90
8862;DHT22;4799;50.996;4.754;2022-09-23T04:31:04;7.70;99.90
8862;DHT22;4799;50.996;4.754;2022-09-23T04:33:30;7.70;99.90
8862;DHT22;4799;50.996;4.754;2022-09-23T04:35:57;7.70;99.90
8862;DHT22;4799;50.996;4.754;2022-09-23T04:38:23;7.80;99.90
8862;DHT22;4799;50.996;4.754;2022-09-23T04:40:49;7.80;99.90
8862;DHT22;4799;50.996;4.754;2022-09-23T04:43:15;7.90;99.90
8862;DHT22;4799;50.996;4.754;2022-09-23T04:45:44;7.80;99.90
8862;DHT22;4799;50.996;4.754;2022-09-23T04:48:10;7.90;99.90
8862;DHT22;4799;50.996;4.754;2022-09-23T04:50:38;7.90;99.90
8862;DHT22;4799;50.996;4.754;2022-09-23T04:53:04;7.90;99.90
8862;DHT22;4799;50.996;4.754;2022-09-23T04:55:30;7.80;99.90
8862;DHT22;4799;50.996;4.754;2022-09-23T04:57:56;7.80;99.90
8862;DHT22;4799;50.996;4.754;2022-09-23T05:00:22;7.80;99.90
8862;DHT22;4799;50.996;4.754;2022-09-23T05:02:49;7.80;99.90
8862;DHT22;4799;50.996;4.754;2022-09-23T05:05:16;7.80;99.90
8862;DHT22;4799;50.996;4.754;2022-09-23T05:07:46;7.80;99.90
8862;DHT22;4799;50.996;4.754;2022-09-23T05:10:13;7.80;99.90
8862;DHT22;4799;50.996;4.754;2022-09-23T05:12:39;7.70;99.90
8862;DHT22;4799;50.996;4.754;2022-09-23T05:15:05;7.70;99.90
8862;DHT22;4799;50.996;4.754;2022-09-23T05:17:31;7.70;99.90
8862;DHT22;4799;50.996;4.754;2022-09-23T05:19:57;7.70;99.90
8862;DHT22;4799;50.996;4.754;2022-09-23T05:22:24;7.70;99.90
8862;DHT22;4799;50.996;4.754;2022-09-23T05:24:53;7.70;99.90
8862;DHT22;4799;50.996;4.754;2022-09-23T05:27:19;7.70;99.90
8862;DHT22;4799;50.996;4.754;2022-09-23T05:29:46;7.70;99.90
8862;DHT22;4799;50.996;4.754;2022-09-23T05:32:12;7.70;99.90
8862;DHT22;4799;50.996;4.754;2022-09-23T05:34:38;7.80;99.90
8862;DHT22;4799;50.996;4.754;2022-09-23T05:37:04;7.80;99.90
8862;DHT22;4799;50.996;4.754;2022-09-23T05:39:30;7.80;99.90
8862;DHT22;4799;50.996;4.754;2022-09-23T05:41:55;7.80;99.90
8862;DHT22;4799;50.996;4.754;2022-09-23T05:44:23;7.80;99.90
8862;DHT22;4799;50.996;4.754;2022-09-23T05:46:48;7.80;99.90
8862;DHT22;4799;50.996;4.754;2022-09-23T05:49:14;7.80;99.90
8862;DHT22;4799;50.996;4.754;2022-09-23T05:51:40;7.80;99.90
8862;DHT22;4799;50.996;4.754;2022-09-23T05:54:06;7.90;99.90
8862;DHT22;4799;50.996;4.754;2022-09-23T05:56:33;7.90;99.90
8862;DHT22;4799;50.996;4.754;2022-09-23T05:59:00;7.80;99.90
8862;DHT22;4799;50.996;4.754;2022-09-23T06:01:28;7.90;99.90
8862;DHT22;4799;50.996;4.754;2022-09-23T06:03:57;7.90;99.90
8862;DHT22;4799;50.996;4.754;2022-09-23T06:06:27;8.00;99.90
8862;DHT22;4799;50.996;4.754;2022-09-23T06:08:53;8.00;99.90
8862;DHT22;4799;50.996;4.754;2022-09-23T06:11:19;8.10;99.90
8862;DHT22;4799;50.996;4.754;2022-09-23T06:13:46;8.10;99.90
8862;DHT22;4799;50.996;4.754;2022-09-23T06:16:13;8.20;99.90
8862;DHT22;4799;50.996;4.754;2022-09-23T06:18:41;8.30;99.90
8862;DHT22;4799;50.996;4.754;2022-09-23T06:21:11;8.40;99.90
8862;DHT22;4799;50.996;4.754;2022-09-23T06:23:37;8.50;99.90
8862;DHT22;4799;50.996;4.754;2022-09-23T06:26:06;8.60;99.90
8862;DHT22;4799;50.996;4.754;2022-09-23T06:28:34;8.60;99.90
8862;DHT22;4799;50.996;4.754;2022-09-23T06:31:06;8.70;99.90
8862;DHT22;4799;50.996;4.754;2022-09-23T06:33:33;8.80;99.90
8862;DHT22;4799;50.996;4.754;2022-09-23T06:36:01;9.00;99.90
8862;DHT22;4799;50.996;4.754;2022-09-23T06:38:28;9.10;99.90
8862;DHT22;4799;50.996;4.754;2022-09-23T06:40:56;9.20;99.90
8862;DHT22;4799;50.996;4.754;2022-09-23T06:43:23;9.30;99.90
8862;DHT22;4799;50.996;4.754;2022-09-23T06:45:59;9.50;99.90
8862;DHT22;4799;50.996;4.754;2022-09-23T06:48:26;9.60;99.90
8862;DHT22;4799;50.996;4.754;2022-09-23T06:50:53;9.70;99.90
8862;DHT22;4799;50.996;4.754;2022-09-23T06:53:20;9.90;99.90
8862;DHT22;4799;50.996;4.754;2022-09-23T06:55:57;10.00;99.90
8862;DHT22;4799;50.996;4.754;2022-09-23T06:58:23;10.10;99.90
8862;DHT22;4799;50.996;4.754;2022-09-23T07:00:51;10.30;99.90
8862;DHT22;4799;50.996;4.754;2022-09-23T07:03:18;10.40;99.90
8862;DHT22;4799;50.996;4.754;2022-09-23T07:05:45;10.50;99.90
8862;DHT22;4799;50.996;4.754;2022-09-23T07:08:11;10.70;99.90
8862;DHT22;4799;50.996;4.754;2022-09-23T07:10:36;10.70;99.90
8862;DHT22;4799;50.996;4.754;2022-09-23T07:13:03;10.90;99.90
8862;DHT22;4799;50.996;4.754;2022-09-23T07:15:29;11.00;99.90
8862;DHT22;4799;50.996;4.754;2022-09-23T07:17:55;11.00;99.90
8862;DHT22;4799;50.996;4.754;2022-09-23T07:20:22;11.10;99.90
8862;DHT22;4799;50.996;4.754;2022-09-23T07:22:49;11.20;99.90
8862;DHT22;4799;50.996;4.754;2022-09-23T07:25:15;11.30;99.90
8862;DHT22;4799;50.996;4.754;2022-09-23T07:27:41;11.30;99.90
8862;DHT22;4799;50.996;4.754;2022-09-23T07:30:07;11.50;99.90
8862;DHT22;4799;50.996;4.754;2022-09-23T07:32:33;11.60;99.90
8862;DHT22;4799;50.996;4.754;2022-09-23T07:34:59;11.70;99.90
8862;DHT22;4799;50.996;4.754;2022-09-23T07:37:24;11.80;99.90
8862;DHT22;4799;50.996;4.754;2022-09-23T07:39:50;11.90;99.90
8862;DHT22;4799;50.996;4.754;2022-09-23T07:42:16;11.90;99.90
8862;DHT22;4799;50.996;4.754;2022-09-23T07:44:42;12.00;99.90
8862;DHT22;4799;50.996;4.754;2022-09-23T07:47:10;12.10;99.90
8862;DHT22;4799;50.996;4.754;2022-09-23T07:49:35;12.10;99.90
8862;DHT22;4799;50.996;4.754;2022-09-23T07:52:02;12.20;99.90
8862;DHT22;4799;50.996;4.754;2022-09-23T07:54:27;12.30;99.90
8862;DHT22;4799;50.996;4.754;2022-09-23T07:56:56;12.40;99.90
8862;DHT22;4799;50.996;4.754;2022-09-23T07:59:22;12.40;99.90
8862;DHT22;4799;50.996;4.754;2022-09-23T08:01:50;12.50;99.90
8862;DHT22;4799;50.996;4.754;2022-09-23T08:04:25;12.60;99.90
8862;DHT22;4799;50.996;4.754;2022-09-23T08:06:57;12.70;99.90
8862;DHT22;4799;50.996;4.754;2022-09-23T08:09:26;12.80;99.90
8862;DHT22;4799;50.996;4.754;2022-09-23T08:11:52;12.90;99.90
8862;DHT22;4799;50.996;4.754;2022-09-23T08:14:18;13.00;99.90
8862;DHT22;4799;50.996;4.754;2022-09-23T08:16:46;13.10;99.90
8862;DHT22;4799;50.996;4.754;2022-09-23T08:19:17;13.20;99.90
8862;DHT22;4799;50.996;4.754;2022-09-23T08:21:44;13.30;99.90
8862;DHT22;4799;50.996;4.754;2022-09-23T08:24:14;13.40;99.90
8862;DHT22;4799;50.996;4.754;2022-09-23T08:26:41;13.60;99.90
8862;DHT22;4799;50.996;4.754;2022-09-23T08:29:07;13.70;99.90
8862;DHT22;4799;50.996;4.754;2022-09-23T08:31:35;13.80;99.90
8862;DHT22;4799;50.996;4.754;2022-09-23T08:34:01;13.90;99.90
8862;DHT22;4799;50.996;4.754;2022-09-23T08:36:28;14.00;99.90
8862;DHT22;4799;50.996;4.754;2022-09-23T08:38:53;14.10;99.90
8862;DHT22;4799;50.996;4.754;2022-09-23T08:41:39;14.20;99.90
8862;DHT22;4799;50.996;4.754;2022-09-23T08:47:08;14.60;99.90
8862;DHT22;4799;50.996;4.754;2022-09-23T08:49:57;14.80;99.90
8862;DHT22;4799;50.996;4.754;2022-09-23T08:52:32;14.90;99.90
8862;DHT22;4799;50.996;4.754;2022-09-23T08:55:00;15.10;99.90
8862;DHT22;4799;50.996;4.754;2022-09-23T09:00:20;15.40;99.90
8862;DHT22;4799;50.996;4.754;2022-09-23T09:02:48;15.50;99.90
8862;DHT22;4799;50.996;4.754;2022-09-23T09:05:22;15.60;99.90
8862;DHT22;4799;50.996;4.754;2022-09-23T09:07:50;15.80;99.90
8862;DHT22;4799;50.996;4.754;2022-09-23T09:12:47;16.10;99.90
8862;DHT22;4799;50.996;4.754;2022-09-23T09:15:21;16.20;99.90
8862;DHT22;4799;50.996;4.754;2022-09-23T09:20:39;16.30;99.90
8862;DHT22;4799;50.996;4.754;2022-09-23T09:23:29;16.30;99.90
8862;DHT22;4799;50.996;4.754;2022-09-23T09:25:58;16.50;99.90
8862;DHT22;4799;50.996;4.754;2022-09-23T09:30:59;16.80;99.90
8862;DHT22;4799;50.996;4.754;2022-09-23T09:33:38;17.00;99.90
8862;DHT22;4799;50.996;4.754;2022-09-23T09:36:06;17.10;99.90
8862;DHT22;4799;50.996;4.754;2022-09-23T09:38:35;17.30;99.90
8862;DHT22;4799;50.996;4.754;2022-09-23T09:41:12;17.40;99.90
8862;DHT22;4799;50.996;4.754;2022-09-23T09:43:44;17.50;99.90
8862;DHT22;4799;50.996;4.754;2022-09-23T09:49:17;17.70;99.90
8862;DHT22;4799;50.996;4.754;2022-09-23T09:52:01;17.80;99.90
8862;DHT22;4799;50.996;4.754;2022-09-23T09:54:35;17.90;99.90
8862;DHT22;4799;50.996;4.754;2022-09-23T09:57:04;18.00;99.90
8862;DHT22;4799;50.996;4.754;2022-09-23T09:59:34;18.10;99.90
8862;DHT22;4799;50.996;4.754;2022-09-23T10:04:54;18.30;99.90
8862;DHT22;4799;50.996;4.754;2022-09-23T10:07:25;18.40;99.90
8862;DHT22;4799;50.996;4.754;2022-09-23T10:09:51;18.50;99.90
8862;DHT22;4799;50.996;4.754;2022-09-23T10:12:23;18.60;99.90
8862;DHT22;4799;50.996;4.754;2022-09-23T10:14:51;18.80;99.90
8862;DHT22;4799;50.996;4.754;2022-09-23T10:17:32;18.90;99.90
8862;DHT22;4799;50.996;4.754;2022-09-23T10:20:08;19.00;99.90
8862;DHT22;4799;50.996;4.754;2022-09-23T10:22:38;19.10;99.90
8862;DHT22;4799;50.996;4.754;2022-09-23T10:25:19;19.20;99.70
8862;DHT22;4799;50.996;4.754;2022-09-23T10:27:49;19.30;99.10
8862;DHT22;4799;50.996;4.754;2022-09-23T10:32:50;19.50;98.80
8862;DHT22;4799;50.996;4.754;2022-09-23T10:35:19;19.50;99.80
8862;DHT22;4799;50.996;4.754;2022-09-23T10:37:52;19.50;98.70
8862;DHT22;4799;50.996;4.754;2022-09-23T10:40:39;19.60;98.40
8862;DHT22;4799;50.996;4.754;2022-09-23T10:47:04;19.80;96.60
8862;DHT22;4799;50.996;4.754;2022-09-23T10:49:34;20.00;97.10
8862;DHT22;4799;50.996;4.754;2022-09-23T11:03:34;20.00;96.30
8862;DHT22;4799;50.996;4.754;2022-09-23T11:12:03;20.20;94.60
8862;DHT22;4799;50.996;4.754;2022-09-23T11:28:55;21.30;90.90
8862;DHT22;4799;50.996;4.754;2022-09-23T11:31:49;21.30;93.10
8862;DHT22;4799;50.996;4.754;2022-09-23T11:34:31;21.20;91.80
8862;DHT22;4799;50.996;4.754;2022-09-23T11:37:08;21.20;91.80
8862;DHT22;4799;50.996;4.754;2022-09-23T11:42:20;21.20;91.70
8862;DHT22;4799;50.996;4.754;2022-09-23T11:45:13;21.20;91.30
8862;DHT22;4799;50.996;4.754;2022-09-23T11:47:53;21.30;88.40
8862;DHT22;4799;50.996;4.754;2022-09-23T11:53:35;21.50;88.50
8862;DHT22;4799;50.996;4.754;2022-09-23T12:01:30;21.80;89.50
8862;DHT22;4799;50.996;4.754;2022-09-23T12:06:54;21.90;89.80
8862;DHT22;4799;50.996;4.754;2022-09-23T12:09:52;22.00;87.20
8862;DHT22;4799;50.996;4.754;2022-09-23T12:12:33;22.10;86.50
8862;DHT22;4799;50.996;4.754;2022-09-23T12:15:16;22.00;89.50
8862;DHT22;4799;50.996;4.754;2022-09-23T12:23:34;21.80;90.70
8862;DHT22;4799;50.996;4.754;2022-09-23T12:26:07;21.70;91.00
8862;DHT22;4799;50.996;4.754;2022-09-23T12:28:40;21.70;91.80
8862;DHT22;4799;50.996;4.754;2022-09-23T12:31:11;21.70;92.20
8862;DHT22;4799;50.996;4.754;2022-09-23T12:33:38;21.80;92.30
8862;DHT22;4799;50.996;4.754;2022-09-23T12:36:07;21.90;92.30
8862;DHT22;4799;50.996;4.754;2022-09-23T12:41:35;22.00;91.80
8862;DHT22;4799;50.996;4.754;2022-09-23T12:46:45;22.20;91.60
8862;DHT22;4799;50.996;4.754;2022-09-23T12:49:43;22.10;91.70
8862;DHT22;4799;50.996;4.754;2022-09-23T12:54:45;22.00;92.80
8862;DHT22;4799;50.996;4.754;2022-09-23T13:05:18;21.80;93.60
8862;DHT22;4799;50.996;4.754;2022-09-23T13:08:12;21.70;93.80
8862;DHT22;4799;50.996;4.754;2022-09-23T13:10:54;21.70;94.50
8862;DHT22;4799;50.996;4.754;2022-09-23T13:15:51;21.60;94.50
8862;DHT22;4799;50.996;4.754;2022-09-23T13:20:48;21.50;95.00
8862;DHT22;4799;50.996;4.754;2022-09-23T13:25:57;21.40;95.10
8862;DHT22;4799;50.996;4.754;2022-09-23T13:30:54;21.50;95.10
8862;DHT22;4799;50.996;4.754;2022-09-23T13:35:56;21.60;94.50
8862;DHT22;4799;50.996;4.754;2022-09-23T13:38:26;21.70;94.80
8862;DHT22;4799;50.996;4.754;2022-09-23T13:41:00;21.80;94.30
8862;DHT22;4799;50.996;4.754;2022-09-23T13:43:34;21.90;94.40
8862;DHT22;4799;50.996;4.754;2022-09-23T13:46:01;21.90;94.00
8862;DHT22;4799;50.996;4.754;2022-09-23T13:48:30;22.00;93.40
8862;DHT22;4799;50.996;4.754;2022-09-23T13:50:56;22.00;93.70
8862;DHT22;4799;50.996;4.754;2022-09-23T13:53:25;22.00;93.00
8862;DHT22;4799;50.996;4.754;2022-09-23T13:56:03;22.00;93.00
8862;DHT22;4799;50.996;4.754;2022-09-23T13:58:31;22.00;92.70
8862;DHT22;4799;50.996;4.754;2022-09-23T14:00:57;22.00;92.80
8862;DHT22;4799;50.996;4.754;2022-09-23T14:03:26;22.00;92.40
8862;DHT22;4799;50.996;4.754;2022-09-23T14:05:54;22.00;92.60
8862;DHT22;4799;50.996;4.754;2022-09-23T14:08:20;22.00;92.40
8862;DHT22;4799;50.996;4.754;2022-09-23T14:10:47;21.90;92.20
8862;DHT22;4799;50.996;4.754;2022-09-23T14:13:19;21.90;92.70
8862;DHT22;4799;50.996;4.754;2022-09-23T14:15:47;22.00;92.20
8862;DHT22;4799;50.996;4.754;2022-09-23T14:20:51;22.00;92.00
8862;DHT22;4799;50.996;4.754;2022-09-23T14:23:17;22.00;92.60
8862;DHT22;4799;50.996;4.754;2022-09-23T14:25:43;22.00;92.20
8862;DHT22;4799;50.996;4.754;2022-09-23T14:28:18;22.00;92.20
8862;DHT22;4799;50.996;4.754;2022-09-23T14:30:44;22.00;92.10
8862;DHT22;4799;50.996;4.754;2022-09-23T14:33:24;22.00;92.80
8862;DHT22;4799;50.996;4.754;2022-09-23T14:35:53;22.00;92.10
8862;DHT22;4799;50.996;4.754;2022-09-23T14:38:27;22.00;92.30
8862;DHT22;4799;50.996;4.754;2022-09-23T14:41:23;22.00;92.00
8862;DHT22;4799;50.996;4.754;2022-09-23T14:46:17;21.90;92.40
8862;DHT22;4799;50.996;4.754;2022-09-23T14:48:51;21.80;92.50
8862;DHT22;4799;50.996;4.754;2022-09-23T14:51:18;21.70;92.80
8862;DHT22;4799;50.996;4.754;2022-09-23T14:53:44;21.70;92.90
8862;DHT22;4799;50.996;4.754;2022-09-23T14:56:18;21.60;93.10
8862;DHT22;4799;50.996;4.754;2022-09-23T15:01:37;21.40;94.00
8862;DHT22;4799;50.996;4.754;2022-09-23T15:04:13;21.30;94.00
8862;DHT22;4799;50.996;4.754;2022-09-23T15:06:45;21.30;94.60
8862;DHT22;4799;50.996;4.754;2022-09-23T15:09:38;21.20;94.70
8862;DHT22;4799;50.996;4.754;2022-09-23T15:12:13;21.10;94.80
8862;DHT22;4799;50.996;4.754;2022-09-23T15:14:42;21.00;95.30
8862;DHT22;4799;50.996;4.754;2022-09-23T15:17:34;21.00;95.50
8862;DHT22;4799;50.996;4.754;2022-09-23T15:20:06;20.90;95.70
8862;DHT22;4799;50.996;4.754;2022-09-23T15:22:45;20.80;96.20
8862;DHT22;4799;50.996;4.754;2022-09-23T15:25:23;20.80;96.50
8862;DHT22;4799;50.996;4.754;2022-09-23T15:28:17;20.70;96.80
8862;DHT22;4799;50.996;4.754;2022-09-23T15:30:43;20.60;97.20
8862;DHT22;4799;50.996;4.754;2022-09-23T15:33:12;20.60;97.60
8862;DHT22;4799;50.996;4.754;2022-09-23T15:35:41;20.50;97.90
8862;DHT22;4799;50.996;4.754;2022-09-23T15:38:09;20.40;98.30
8862;DHT22;4799;50.996;4.754;2022-09-23T15:40:36;20.40;99.10
8862;DHT22;4799;50.996;4.754;2022-09-23T15:43:19;20.30;99.10
8862;DHT22;4799;50.996;4.754;2022-09-23T15:45:57;20.30;99.30
8862;DHT22;4799;50.996;4.754;2022-09-23T15:48:26;20.30;99.70
8862;DHT22;4799;50.996;4.754;2022-09-23T15:50:53;20.20;99.80
8862;DHT22;4799;50.996;4.754;2022-09-23T15:53:21;20.10;99.90
8862;DHT22;4799;50.996;4.754;2022-09-23T15:55:48;20.10;99.90
8862;DHT22;4799;50.996;4.754;2022-09-23T15:58:18;20.10;99.90
8862;DHT22;4799;50.996;4.754;2022-09-23T16:00:45;20.10;99.90
8862;DHT22;4799;50.996;4.754;2022-09-23T16:03:14;20.00;99.90
8862;DHT22;4799;50.996;4.754;2022-09-23T16:05:42;20.00;99.90
8862;DHT22;4799;50.996;4.754;2022-09-23T16:08:11;19.90;99.90
8862;DHT22;4799;50.996;4.754;2022-09-23T16:10:37;19.90;99.90
8862;DHT22;4799;50.996;4.754;2022-09-23T16:13:06;19.90;99.90
8862;DHT22;4799;50.996;4.754;2022-09-23T16:15:34;19.80;99.90
8862;DHT22;4799;50.996;4.754;2022-09-23T16:18:00;19.70;99.90
8862;DHT22;4799;50.996;4.754;2022-09-23T16:20:27;19.70;99.90
8862;DHT22;4799;50.996;4.754;2022-09-23T16:23:00;19.60;99.90
8862;DHT22;4799;50.996;4.754;2022-09-23T16:25:28;19.60;99.90
8862;DHT22;4799;50.996;4.754;2022-09-23T16:27:56;19.50;99.90
8862;DHT22;4799;50.996;4.754;2022-09-23T16:30:27;19.50;99.90
8862;DHT22;4799;50.996;4.754;2022-09-23T16:32:53;19.40;99.90
8862;DHT22;4799;50.996;4.754;2022-09-23T16:35:20;19.40;99.90
8862;DHT22;4799;50.996;4.754;2022-09-23T16:37:47;19.30;99.90
8862;DHT22;4799;50.996;4.754;2022-09-23T16:40:15;19.30;99.90
8862;DHT22;4799;50.996;4.754;2022-09-23T16:42:47;19.30;99.90
8862;DHT22;4799;50.996;4.754;2022-09-23T16:45:14;19.20;99.90
8862;DHT22;4799;50.996;4.754;2022-09-23T16:47:46;19.20;99.90
8862;DHT22;4799;50.996;4.754;2022-09-23T16:50:13;19.10;99.90
8862;DHT22;4799;50.996;4.754;2022-09-23T16:52:39;19.00;99.90
8862;DHT22;4799;50.996;4.754;2022-09-23T16:55:07;19.10;99.90
8862;DHT22;4799;50.996;4.754;2022-09-23T16:57:37;19.00;99.90
8862;DHT22;4799;50.996;4.754;2022-09-23T17:04:39;18.90;99.90
8862;DHT22;4799;50.996;4.754;2022-09-23T17:07:05;18.80;99.90
8862;DHT22;4799;50.996;4.754;2022-09-23T17:09:31;18.70;99.90
8862;DHT22;4799;50.996;4.754;2022-09-23T17:12:17;18.70;99.90
8862;DHT22;4799;50.996;4.754;2022-09-23T17:14:44;18.60;99.90
8862;DHT22;4799;50.996;4.754;2022-09-23T17:17:10;18.60;99.90
8862;DHT22;4799;50.996;4.754;2022-09-23T17:19:37;18.50;99.90
8862;DHT22;4799;50.996;4.754;2022-09-23T17:22:05;18.40;99.90
8862;DHT22;4799;50.996;4.754;2022-09-23T17:24:31;18.40;99.90
8862;DHT22;4799;50.996;4.754;2022-09-23T17:26:57;18.30;99.90
8862;DHT22;4799;50.996;4.754;2022-09-23T17:29:22;18.30;99.90
8862;DHT22;4799;50.996;4.754;2022-09-23T17:31:51;18.20;99.90
8862;DHT22;4799;50.996;4.754;2022-09-23T17:34:17;18.20;99.90
8862;DHT22;4799;50.996;4.754;2022-09-23T17:36:44;18.10;99.90
8862;DHT22;4799;50.996;4.754;2022-09-23T17:39:09;18.10;99.90
8862;DHT22;4799;50.996;4.754;2022-09-23T17:41:35;18.00;99.90
8862;DHT22;4799;50.996;4.754;2022-09-23T17:44:03;17.90;99.90
8862;DHT22;4799;50.996;4.754;2022-09-23T17:46:30;17.80;99.90
8862;DHT22;4799;50.996;4.754;2022-09-23T17:48:56;17.80;99.90
8862;DHT22;4799;50.996;4.754;2022-09-23T17:51:25;17.70;99.90
8862;DHT22;4799;50.996;4.754;2022-09-23T17:53:52;17.60;99.90
8862;DHT22;4799;50.996;4.754;2022-09-23T17:56:20;17.50;99.90
8862;DHT22;4799;50.996;4.754;2022-09-23T17:58:47;17.50;99.90
8862;DHT22;4799;50.996;4.754;2022-09-23T18:03:44;17.30;99.90
8862;DHT22;4799;50.996;4.754;2022-09-23T18:06:18;17.20;99.90
8862;DHT22;4799;50.996;4.754;2022-09-23T18:08:47;17.20;99.90
8862;DHT22;4799;50.996;4.754;2022-09-23T18:11:24;17.20;99.90
8862;DHT22;4799;50.996;4.754;2022-09-23T18:14:05;17.10;99.90
8862;DHT22;4799;50.996;4.754;2022-09-23T18:16:37;17.10;99.90
8862;DHT22;4799;50.996;4.754;2022-09-23T18:19:05;17.00;99.90
8862;DHT22;4799;50.996;4.754;2022-09-23T18:21:35;16.90;99.90
8862;DHT22;4799;50.996;4.754;2022-09-23T18:24:01;16.90;99.90
8862;DHT22;4799;50.996;4.754;2022-09-23T18:26:27;16.90;99.90
8862;DHT22;4799;50.996;4.754;2022-09-23T18:28:56;16.90;99.90
8862;DHT22;4799;50.996;4.754;2022-09-23T18:31:25;16.80;99.90
8862;DHT22;4799;50.996;4.754;2022-09-23T18:33:53;16.80;99.90
8862;DHT22;4799;50.996;4.754;2022-09-23T18:36:20;16.80;99.90
8862;DHT22;4799;50.996;4.754;2022-09-23T18:38:48;16.80;99.90
8862;DHT22;4799;50.996;4.754;2022-09-23T18:41:15;16.80;99.90
8862;DHT22;4799;50.996;4.754;2022-09-23T18:43:41;16.80;99.90
8862;DHT22;4799;50.996;4.754;2022-09-23T18:46:11;16.70;99.90
8862;DHT22;4799;50.996;4.754;2022-09-23T18:48:37;16.70;99.90
8862;DHT22;4799;50.996;4.754;2022-09-23T18:51:24;16.70;99.90
8862;DHT22;4799;50.996;4.754;2022-09-23T18:53:51;16.70;99.90
8862;DHT22;4799;50.996;4.754;2022-09-23T18:56:23;16.70;99.90
8862;DHT22;4799;50.996;4.754;2022-09-23T18:58:50;16.60;99.90
8862;DHT22;4799;50.996;4.754;2022-09-23T19:01:18;16.60;99.90
8862;DHT22;4799;50.996;4.754;2022-09-23T19:03:44;16.60;99.90
8862;DHT22;4799;50.996;4.754;2022-09-23T19:06:13;16.60;99.90
8862;DHT22;4799;50.996;4.754;2022-09-23T19:08:40;16.50;99.90
8862;DHT22;4799;50.996;4.754;2022-09-23T19:11:07;16.50;99.90
8862;DHT22;4799;50.996;4.754;2022-09-23T19:13:34;16.50;99.90
8862;DHT22;4799;50.996;4.754;2022-09-23T19:16:04;16.50;99.90
8862;DHT22;4799;50.996;4.754;2022-09-23T19:18:32;16.40;99.90
8862;DHT22;4799;50.996;4.754;2022-09-23T19:20:58;16.40;99.90